Terminal Aerodrome Forecast
Issued by NWS

Home | Current Version | Previous Version | Text Only | Print | Product List | Glossary On
Versions: 1 2 3 4 5 6 7 8 9 10 11 12 13 14 15 16 17 18 19 20 21 22 23 24 25 26
490
FTUS43 KLOT 301504 AAA
TAFDPA
TAF AMD
KDPA 301504Z 3015/0112 05012G19KT 4SM -RA BR OVC004
     FM301900 07013G20KT 5SM -SHRA BR OVC007
     FM302300 08008KT 6SM -SHRA BR OVC008
      TEMPO 0101/0103 3SM TSRA OVC008CB
     FM010500 18010KT P6SM OVC025=

USA.gov is the U.S. government's official web portal to all federal, state and local government web resources and services.